Pagina principală
METAR-TAF:

METAR-TAF

Aeroporturi :

La Grande/Union County Airport

La Grande, Oregon, Statele Unite ale Americii

Latitudine: 45-17N, longitudine: 118-00W, elevație: 827 m

Observații meteo curente

Raportul a fost făcut în urmă cu 48 de minute, la 20:56 UTC
Vânt 4 kt de la Est/Nord-est
Temperatură 13°C
Umiditate 44%
Presiune 1014 hPa
Vizibilitate: 16.1 km
Cer senin

METAR: KLGD 162056Z AUTO 07004KT 10SM CLR 13/01 A2995 RMK AO2 SLP143 T01280006 56021 $

Ora: 14:44 (21:44 UTC)


TAF: lipsă

Observații și prognoze meteo pentru peste 4.000 de aeroporturi (rapoarte METAR și TAF).

Stațiile disponibile sunt reprezentate pe hartă prin puncte galbene și roșii.

Țineți indicatorul mouse-ului pe punctul dorit pentru a vedea denumirea stației.

Apoi, faceți clic pentru a vedea observațiile și prognozele meteorologice.

Pentru a schimba harta: Pentru mărire, faceți clic pe butoanele verzi cu cruce neagră; pentru micșorare, pe butonul verde cu o liniuță; pentru hărți învecinate, pe săgețile verzi.


METAR-TAF: